createdAt,value
2024-03-08T00:01:01.212Z,13.50
2024-03-08T00:03:49.864Z,13.20
2024-03-08T00:06:22.920Z,9.60
2024-03-08T00:08:56.078Z,13.20
2024-03-08T00:11:29.168Z,13.20
2024-03-08T00:14:02.269Z,13.60
2024-03-08T00:16:35.418Z,14.10
2024-03-08T00:19:08.291Z,13.80
2024-03-08T00:21:41.473Z,12.60
2024-03-08T00:24:16.868Z,14.40
2024-03-08T00:26:49.918Z,13.20
2024-03-08T00:29:23.685Z,13.90
2024-03-08T00:31:56.574Z,13.30
2024-03-08T00:34:29.699Z,12.90
2024-03-08T00:37:09.925Z,14.40
2024-03-08T00:39:43.622Z,14.00
2024-03-08T00:42:17.853Z,13.10
2024-03-08T00:44:53.168Z,13.80
2024-03-08T00:47:26.512Z,13.30
2024-03-08T00:50:00.109Z,14.10
2024-03-08T00:52:36.292Z,13.00
2024-03-08T00:55:12.304Z,13.50
2024-03-08T00:57:46.740Z,13.30
2024-03-08T01:00:23.061Z,14.40
2024-03-08T01:02:56.741Z,13.70
2024-03-08T01:05:30.281Z,14.70
2024-03-08T01:08:04.521Z,15.10
2024-03-08T01:10:38.672Z,16.70
2024-03-08T01:13:12.129Z,15.60
2024-03-08T01:15:46.260Z,16.20
2024-03-08T01:18:22.714Z,17.30
2024-03-08T01:20:55.722Z,19.10
2024-03-08T01:23:28.855Z,22.40
2024-03-08T01:26:01.677Z,16.00
2024-03-08T01:28:35.914Z,14.60
2024-03-08T01:31:10.758Z,14.20
2024-03-08T01:33:52.044Z,15.90
2024-03-08T01:36:26.188Z,12.30
2024-03-08T01:38:59.174Z,13.60
2024-03-08T01:41:47.725Z,14.70
2024-03-08T01:44:21.111Z,13.90
2024-03-08T01:46:55.711Z,14.70
2024-03-08T01:49:30.834Z,13.30
2024-03-08T01:52:03.993Z,14.80
2024-03-08T01:54:38.164Z,14.30
2024-03-08T01:57:13.590Z,15.60
2024-03-08T01:59:47.353Z,14.60
2024-03-08T02:02:22.496Z,15.30
2024-03-08T02:04:55.888Z,16.00
2024-03-08T02:07:29.081Z,16.80
2024-03-08T02:10:02.052Z,15.80
2024-03-08T02:12:35.245Z,16.20
2024-03-08T02:15:09.375Z,15.30
2024-03-08T02:17:42.971Z,16.40
2024-03-08T02:20:16.592Z,17.70
2024-03-08T02:22:49.702Z,16.70
2024-03-08T02:25:23.199Z,17.50
2024-03-08T02:27:56.010Z,15.40
2024-03-08T02:30:31.014Z,16.10
2024-03-08T02:33:04.005Z,16.30
2024-03-08T02:35:37.310Z,16.00
2024-03-08T02:38:10.564Z,15.80
2024-03-08T02:40:43.518Z,14.80
2024-03-08T02:43:21.173Z,15.30
2024-03-08T02:45:55.534Z,16.40
2024-03-08T02:48:28.807Z,14.80
2024-03-08T02:51:03.626Z,15.00
2024-03-08T02:53:36.738Z,17.70
2024-03-08T02:56:14.836Z,17.00
2024-03-08T02:58:50.190Z,16.00
2024-03-08T03:01:24.263Z,13.50
2024-03-08T03:03:57.142Z,14.10
2024-03-08T03:06:30.281Z,13.50
2024-03-08T03:09:03.476Z,13.60
2024-03-08T03:11:36.623Z,15.10
2024-03-08T03:14:09.795Z,15.50
2024-03-08T03:16:45.638Z,15.80
2024-03-08T03:19:19.449Z,15.30
2024-03-08T03:21:53.447Z,15.30
2024-03-08T03:24:26.609Z,15.50
2024-03-08T03:27:03.488Z,12.80
2024-03-08T03:29:36.506Z,12.20
2024-03-08T03:32:09.852Z,12.80
2024-03-08T03:34:46.266Z,14.20
2024-03-08T03:37:19.445Z,14.00
2024-03-08T03:39:54.855Z,13.20
2024-03-08T03:42:28.108Z,12.80
2024-03-08T03:45:01.514Z,13.70
2024-03-08T03:47:34.966Z,13.30
2024-03-08T03:50:11.140Z,10.50
2024-03-08T03:52:44.888Z,13.10
2024-03-08T03:55:18.417Z,14.60
2024-03-08T03:57:51.477Z,14.50
2024-03-08T04:00:24.841Z,14.50
2024-03-08T04:03:00.909Z,14.50
2024-03-08T04:05:34.191Z,12.80
2024-03-08T04:08:08.245Z,23.10
2024-03-08T04:10:43.281Z,12.80
2024-03-08T04:13:17.692Z,16.20
2024-03-08T04:16:01.462Z,20.90
2024-03-08T04:18:37.196Z,22.40
2024-03-08T04:21:10.516Z,18.60
2024-03-08T04:23:46.746Z,16.90
2024-03-08T04:26:20.035Z,15.30
2024-03-08T04:28:53.273Z,16.10
2024-03-08T04:31:28.371Z,17.20
2024-03-08T04:34:01.403Z,15.00
2024-03-08T04:36:39.015Z,16.70
2024-03-08T04:39:15.178Z,17.20
2024-03-08T04:41:49.544Z,14.20
2024-03-08T04:44:22.697Z,15.40
2024-03-08T04:46:55.660Z,15.90
2024-03-08T04:49:29.846Z,11.80
2024-03-08T04:52:05.384Z,15.90
2024-03-08T04:54:38.548Z,14.80
2024-03-08T04:57:13.091Z,14.10
2024-03-08T04:59:46.250Z,14.80
2024-03-08T05:02:20.346Z,14.30
2024-03-08T05:04:53.230Z,13.80
2024-03-08T05:07:26.416Z,14.90
2024-03-08T05:09:59.501Z,12.10
2024-03-08T05:12:32.831Z,13.40
2024-03-08T05:15:06.500Z,14.80
2024-03-08T05:17:41.868Z,14.50
2024-03-08T05:20:15.952Z,16.00
2024-03-08T05:22:49.182Z,14.70
2024-03-08T05:25:22.539Z,14.40
2024-03-08T05:27:55.531Z,14.60
2024-03-08T05:30:28.727Z,14.40
2024-03-08T05:33:02.490Z,15.10
2024-03-08T05:35:37.328Z,15.40
2024-03-08T05:38:10.445Z,11.80
2024-03-08T05:40:46.872Z,14.00
2024-03-08T05:43:21.004Z,14.70
2024-03-08T05:45:57.871Z,15.90
2024-03-08T05:48:31.093Z,14.30
2024-03-08T05:51:06.022Z,16.00
2024-03-08T05:53:41.112Z,14.90
2024-03-08T05:56:14.036Z,15.40
2024-03-08T05:58:54.505Z,14.60
2024-03-08T06:01:27.346Z,14.20
2024-03-08T06:04:02.340Z,14.00
2024-03-08T06:06:35.656Z,13.80
2024-03-08T06:09:13.728Z,16.80
2024-03-08T06:11:47.705Z,15.80
2024-03-08T06:14:21.208Z,14.60
2024-03-08T06:16:54.732Z,14.80
2024-03-08T06:19:28.130Z,13.10
2024-03-08T06:22:02.273Z,14.80
2024-03-08T06:24:38.030Z,14.80
2024-03-08T06:27:11.159Z,14.70
2024-03-08T06:29:45.050Z,11.90
2024-03-08T06:32:20.315Z,13.70
2024-03-08T06:34:53.218Z,11.50
2024-03-08T06:37:26.268Z,12.00
2024-03-08T06:39:59.456Z,14.50
2024-03-08T06:42:35.311Z,15.70
2024-03-08T06:45:10.760Z,12.40
2024-03-08T06:47:45.686Z,14.80
2024-03-08T06:50:19.256Z,17.00
2024-03-08T06:52:55.105Z,15.10
2024-03-08T06:55:28.411Z,16.40
2024-03-08T06:58:02.270Z,17.20
2024-03-08T07:00:35.464Z,18.80
2024-03-08T07:03:13.895Z,13.90
2024-03-08T07:05:49.905Z,16.10
2024-03-08T07:08:24.619Z,13.40
2024-03-08T07:11:00.478Z,16.90
2024-03-08T07:13:33.951Z,16.50
2024-03-08T07:16:11.785Z,16.20
2024-03-08T07:18:45.827Z,11.30
2024-03-08T07:21:20.681Z,15.70
2024-03-08T07:24:11.621Z,16.90
2024-03-08T07:26:44.918Z,15.50
2024-03-08T07:29:18.131Z,16.40
2024-03-08T07:32:02.762Z,11.80
2024-03-08T07:34:36.198Z,15.50
2024-03-08T07:37:12.505Z,15.60
2024-03-08T07:39:46.281Z,12.70
2024-03-08T07:42:19.707Z,17.10
2024-03-08T07:44:54.400Z,16.50
2024-03-08T07:47:27.812Z,16.40
2024-03-08T07:50:03.625Z,16.40
2024-03-08T07:52:38.416Z,15.50
2024-03-08T07:55:14.212Z,18.50
2024-03-08T07:57:49.225Z,17.10
2024-03-08T08:00:23.450Z,18.10
2024-03-08T08:02:56.436Z,16.20
2024-03-08T08:05:31.394Z,16.60
2024-03-08T08:08:07.643Z,18.50
2024-03-08T08:10:41.084Z,17.10
2024-03-08T08:13:14.434Z,17.20
2024-03-08T08:15:48.763Z,19.00
2024-03-08T08:18:26.268Z,20.60
2024-03-08T08:20:59.253Z,19.30
2024-03-08T08:23:33.675Z,18.60
2024-03-08T08:26:10.459Z,19.40
2024-03-08T08:28:47.667Z,20.10
2024-03-08T08:31:24.389Z,20.10
2024-03-08T08:33:59.810Z,20.00
2024-03-08T08:36:33.149Z,20.10
2024-03-08T08:39:13.033Z,20.50
2024-03-08T08:41:49.481Z,20.00
2024-03-08T08:44:22.622Z,19.00
2024-03-08T08:46:59.902Z,15.90
2024-03-08T08:49:40.829Z,18.40
2024-03-08T08:52:17.095Z,19.60
2024-03-08T08:54:52.556Z,18.60
2024-03-08T08:57:26.991Z,21.30
2024-03-08T09:00:02.834Z,20.10
2024-03-08T09:02:37.494Z,20.20
2024-03-08T09:05:11.906Z,20.20
2024-03-08T09:07:47.161Z,17.90
2024-03-08T09:10:20.759Z,20.20
2024-03-08T09:12:54.057Z,20.60
2024-03-08T09:15:30.954Z,19.30
2024-03-08T09:18:06.598Z,18.70
2024-03-08T09:20:42.834Z,16.70
2024-03-08T09:23:18.340Z,19.60
2024-03-08T09:25:53.488Z,19.40
2024-03-08T09:28:29.097Z,18.10
2024-03-08T09:31:03.527Z,18.40
2024-03-08T09:33:37.586Z,19.80
2024-03-08T09:36:14.153Z,17.80
2024-03-08T09:38:50.968Z,15.40
2024-03-08T09:41:24.676Z,15.80
2024-03-08T09:44:05.590Z,17.00
2024-03-08T09:46:52.835Z,17.00
2024-03-08T09:49:26.960Z,16.80
2024-03-08T09:51:59.986Z,18.80
2024-03-08T09:54:33.560Z,17.50
2024-03-08T09:57:09.854Z,16.90
2024-03-08T09:59:48.408Z,19.00
2024-03-08T10:02:22.906Z,15.70
2024-03-08T10:04:56.714Z,18.60
2024-03-08T10:07:30.793Z,17.50
2024-03-08T10:10:04.817Z,16.60
2024-03-08T10:12:38.320Z,16.10
2024-03-08T10:15:15.064Z,17.40
2024-03-08T10:17:50.595Z,16.30
2024-03-08T10:20:25.526Z,15.50
2024-03-08T10:23:07.395Z,18.40
2024-03-08T10:25:50.610Z,14.00
2024-03-08T10:28:26.776Z,19.20
2024-03-08T10:31:03.705Z,19.10
2024-03-08T10:33:40.325Z,19.50
2024-03-08T10:36:16.418Z,18.30
2024-03-08T10:38:51.240Z,19.50
2024-03-08T10:41:25.644Z,17.80
2024-03-08T10:44:18.236Z,19.70
2024-03-08T10:47:11.065Z,18.00
2024-03-08T10:50:08.686Z,17.80
2024-03-08T10:52:42.122Z,18.10
2024-03-08T10:55:18.929Z,16.40
2024-03-08T10:57:58.768Z,19.10
2024-03-08T11:00:33.852Z,17.00
2024-03-08T11:03:07.703Z,17.70
2024-03-08T11:05:45.446Z,13.70
2024-03-08T11:08:24.906Z,15.60
2024-03-08T11:11:02.158Z,16.70
2024-03-08T11:13:45.264Z,16.10
2024-03-08T11:16:43.651Z,17.20
2024-03-08T11:19:33.076Z,14.30
2024-03-08T11:22:09.342Z,16.60
2024-03-08T11:24:46.955Z,16.80
2024-03-08T11:27:23.246Z,16.20
2024-03-08T11:30:17.263Z,14.20
2024-03-08T11:32:53.355Z,14.40
2024-03-08T11:35:28.595Z,14.50
2024-03-08T11:38:04.076Z,16.80
2024-03-08T11:40:37.938Z,13.60
2024-03-08T11:43:15.939Z,14.30
2024-03-08T11:45:49.845Z,12.80
2024-03-08T11:48:25.720Z,14.40
2024-03-08T11:51:07.637Z,15.90
2024-03-08T11:53:42.344Z,14.60
2024-03-08T11:56:21.752Z,15.90
2024-03-08T11:59:16.208Z,15.00
2024-03-08T12:02:04.843Z,13.90
2024-03-08T12:04:43.447Z,12.70
2024-03-08T12:07:20.688Z,13.80
2024-03-08T12:10:20.567Z,13.40
2024-03-08T12:12:54.578Z,16.10
2024-03-08T12:15:28.916Z,12.10
2024-03-08T12:18:03.747Z,12.40
2024-03-08T12:20:37.479Z,15.30
2024-03-08T12:23:25.922Z,13.80
2024-03-08T12:26:00.684Z,11.30
2024-03-08T12:28:34.813Z,11.10
2024-03-08T12:31:13.819Z,15.20
2024-03-08T12:33:58.616Z,13.90
2024-03-08T12:36:32.219Z,13.30
2024-03-08T12:39:06.658Z,14.10
2024-03-08T12:41:43.967Z,11.80
2024-03-08T12:44:17.905Z,14.30
2024-03-08T12:46:56.461Z,13.00
2024-03-08T12:49:32.764Z,11.90
2024-03-08T12:52:07.409Z,10.80
2024-03-08T12:54:41.442Z,11.40
2024-03-08T12:57:15.926Z,11.10
2024-03-08T12:59:51.617Z,11.80
2024-03-08T13:02:26.233Z,12.10
2024-03-08T13:05:00.044Z,12.20
2024-03-08T13:07:34.090Z,12.50
2024-03-08T13:10:16.740Z,11.70
2024-03-08T13:12:54.163Z,12.40
2024-03-08T13:15:30.630Z,12.40
2024-03-08T13:18:04.612Z,12.00
2024-03-08T13:20:50.579Z,12.50
2024-03-08T13:23:24.097Z,9.70
2024-03-08T13:25:58.852Z,12.30
2024-03-08T13:28:33.433Z,12.10
2024-03-08T13:31:15.149Z,11.40
2024-03-08T13:33:50.023Z,9.60
2024-03-08T13:36:26.134Z,10.50
2024-03-08T13:39:01.981Z,10.40
2024-03-08T13:41:35.554Z,9.10
2024-03-08T13:44:09.061Z,10.90
2024-03-08T13:46:43.477Z,11.20
2024-03-08T13:49:18.451Z,11.50
2024-03-08T13:51:51.422Z,11.50
2024-03-08T13:54:33.160Z,10.90
2024-03-08T13:57:08.506Z,11.40
2024-03-08T13:59:42.023Z,11.30
2024-03-08T14:02:16.260Z,8.60
2024-03-08T14:04:51.249Z,8.80
2024-03-08T14:07:26.239Z,10.80
2024-03-08T14:10:01.716Z,10.00
2024-03-08T14:12:37.651Z,9.80
2024-03-08T14:15:14.201Z,11.10
2024-03-08T14:17:48.626Z,11.20
2024-03-08T14:20:28.403Z,11.00
2024-03-08T14:23:08.153Z,7.90
2024-03-08T14:25:42.781Z,10.30
2024-03-08T14:28:24.661Z,11.10
2024-03-08T14:31:00.337Z,10.40
2024-03-08T14:33:35.346Z,10.50
2024-03-08T14:36:18.173Z,9.30
2024-03-08T14:38:52.585Z,10.00
2024-03-08T14:41:26.586Z,9.90
2024-03-08T14:44:03.285Z,9.50
2024-03-08T14:46:37.220Z,8.60
2024-03-08T14:49:11.484Z,9.90
2024-03-08T14:51:47.220Z,8.50
2024-03-08T14:54:24.748Z,7.00
2024-03-08T14:57:08.977Z,9.00
2024-03-08T14:59:47.148Z,10.40
2024-03-08T15:02:23.441Z,11.00
2024-03-08T15:05:00.156Z,10.90
2024-03-08T15:07:35.233Z,10.90
2024-03-08T15:10:16.510Z,10.80
2024-03-08T15:12:56.757Z,10.90
2024-03-08T15:15:31.777Z,12.20
2024-03-08T15:18:06.147Z,11.20
2024-03-08T15:20:42.736Z,10.50
2024-03-08T15:23:18.542Z,11.80
2024-03-08T15:25:52.012Z,11.30
2024-03-08T15:28:37.718Z,10.70
2024-03-08T15:31:13.309Z,11.90
2024-03-08T15:33:53.967Z,12.50
2024-03-08T15:36:31.007Z,13.00
2024-03-08T15:39:12.060Z,11.80
2024-03-08T15:41:50.517Z,11.60
2024-03-08T15:44:29.382Z,11.80
2024-03-08T15:47:11.834Z,10.30
2024-03-08T15:49:47.755Z,11.90
2024-03-08T15:52:26.590Z,11.70
2024-03-08T15:55:07.168Z,12.10
2024-03-08T15:57:43.208Z,11.90
2024-03-08T16:00:34.961Z,12.40
2024-03-08T16:03:13.493Z,12.30
2024-03-08T16:05:49.826Z,11.30
2024-03-08T16:08:24.693Z,11.30
2024-03-08T16:10:58.934Z,10.50
2024-03-08T16:13:34.287Z,10.80
2024-03-08T16:16:10.594Z,11.60
2024-03-08T16:18:44.301Z,13.60
2024-03-08T16:21:18.786Z,13.30
2024-03-08T16:23:53.290Z,14.80
2024-03-08T16:26:29.184Z,14.70
2024-03-08T16:29:02.931Z,11.70
2024-03-08T16:31:38.842Z,14.10
2024-03-08T16:34:12.584Z,17.00
2024-03-08T16:36:48.948Z,13.40
2024-03-08T16:39:25.860Z,15.20
2024-03-08T16:41:59.951Z,13.50
2024-03-08T16:44:33.324Z,14.20
2024-03-08T16:47:08.027Z,12.90
2024-03-08T16:49:46.995Z,13.50
2024-03-08T16:52:26.162Z,16.00
2024-03-08T16:55:07.312Z,16.30
2024-03-08T16:57:54.488Z,14.60
2024-03-08T17:00:37.408Z,14.00
2024-03-08T17:03:18.282Z,15.70
2024-03-08T17:05:55.997Z,14.40
2024-03-08T17:08:31.402Z,14.60
2024-03-08T17:11:05.286Z,15.50
2024-03-08T17:13:40.357Z,13.90
2024-03-08T17:16:15.905Z,16.30
2024-03-08T17:18:50.122Z,13.70
2024-03-08T17:21:23.375Z,16.10
2024-03-08T17:23:57.866Z,15.80
2024-03-08T17:26:31.567Z,14.80
2024-03-08T17:29:05.316Z,14.90
2024-03-08T17:31:40.764Z,14.70
2024-03-08T17:34:20.488Z,14.50
2024-03-08T17:36:59.158Z,15.30
2024-03-08T17:39:36.042Z,16.80
2024-03-08T17:42:12.086Z,13.70
2024-03-08T17:44:48.010Z,15.90
2024-03-08T17:47:26.330Z,16.40
2024-03-08T17:50:01.587Z,16.60
2024-03-08T17:52:38.311Z,17.40
2024-03-08T17:55:16.578Z,16.30
2024-03-08T17:57:53.146Z,17.70
2024-03-08T18:00:31.257Z,18.40
2024-03-08T18:03:07.010Z,18.80
2024-03-08T18:05:46.820Z,19.20
2024-03-08T18:08:24.005Z,19.40
2024-03-08T18:10:59.195Z,18.40
2024-03-08T18:13:38.128Z,17.90
2024-03-08T18:16:19.058Z,18.70
2024-03-08T18:19:02.882Z,19.00
2024-03-08T18:21:51.509Z,19.10
2024-03-08T18:24:29.177Z,16.70
2024-03-08T18:27:03.662Z,18.90
2024-03-08T18:29:38.081Z,17.60
2024-03-08T18:32:14.759Z,18.90
2024-03-08T18:34:56.798Z,18.60
2024-03-08T18:37:31.485Z,21.60
2024-03-08T18:40:10.267Z,20.80
2024-03-08T18:42:50.473Z,22.50
2024-03-08T18:45:33.229Z,20.20
2024-03-08T18:48:29.762Z,19.30
2024-03-08T18:51:14.996Z,18.20
2024-03-08T18:53:55.350Z,17.80
2024-03-08T18:56:31.940Z,17.20
2024-03-08T18:59:11.256Z,24.70
2024-03-08T19:01:49.830Z,21.30
2024-03-08T19:04:29.061Z,21.30
2024-03-08T19:07:04.734Z,20.40
2024-03-08T19:09:55.019Z,23.20
2024-03-08T19:12:50.217Z,23.60
2024-03-08T19:15:24.680Z,23.00
2024-03-08T19:18:01.531Z,23.10
2024-03-08T19:20:37.741Z,20.80
2024-03-08T19:23:13.345Z,24.40
2024-03-08T19:25:47.998Z,24.70
2024-03-08T19:28:25.627Z,24.50
2024-03-08T19:31:01.593Z,24.00
2024-03-08T19:36:29.575Z,29.90
2024-03-08T19:39:06.157Z,30.30
2024-03-08T19:41:42.782Z,32.80
2024-03-08T19:44:21.734Z,32.20
2024-03-08T19:46:58.473Z,33.00
2024-03-08T19:49:34.660Z,30.40
2024-03-08T19:52:12.261Z,30.00
2024-03-08T19:54:48.935Z,29.10
2024-03-08T19:57:22.865Z,31.40
2024-03-08T20:00:00.247Z,30.20
2024-03-08T20:02:34.418Z,34.30
2024-03-08T20:05:17.662Z,31.00
2024-03-08T20:07:53.920Z,31.30
2024-03-08T20:10:33.577Z,33.60
2024-03-08T20:13:11.990Z,40.50
2024-03-08T20:15:56.065Z,46.70
2024-03-08T20:18:34.530Z,50.10
2024-03-08T20:21:10.761Z,37.40
2024-03-08T20:23:46.476Z,46.90
2024-03-08T20:26:27.167Z,39.10
2024-03-08T20:29:00.952Z,39.40
2024-03-08T20:31:36.144Z,32.50
2024-03-08T20:34:11.237Z,32.70
2024-03-08T20:36:48.219Z,36.60
2024-03-08T20:39:24.220Z,31.90
2024-03-08T20:41:59.812Z,31.60
2024-03-08T20:44:33.372Z,32.60
2024-03-08T20:47:08.035Z,33.60
2024-03-08T20:49:41.849Z,30.60
2024-03-08T20:52:15.852Z,30.60
2024-03-08T20:54:51.797Z,33.20
2024-03-08T20:57:25.708Z,32.60
2024-03-08T21:00:02.854Z,31.50
2024-03-08T21:02:40.620Z,30.90
2024-03-08T21:05:15.166Z,29.60
2024-03-08T21:07:49.516Z,30.10
2024-03-08T21:10:26.633Z,31.60
2024-03-08T21:13:01.190Z,35.30
2024-03-08T21:15:35.238Z,31.30
2024-03-08T21:18:10.611Z,30.70
2024-03-08T21:20:43.870Z,33.00
2024-03-08T21:23:18.330Z,30.40
2024-03-08T21:25:52.050Z,25.90
2024-03-08T21:28:31.373Z,25.00
2024-03-08T21:31:08.027Z,26.40
2024-03-08T21:33:41.598Z,24.80
2024-03-08T21:36:18.445Z,24.60
2024-03-08T21:38:51.783Z,26.60
2024-03-08T21:41:25.246Z,29.30
2024-03-08T21:43:58.495Z,31.90
2024-03-08T21:46:32.083Z,22.70
2024-03-08T21:49:07.862Z,27.10
2024-03-08T21:51:48.190Z,28.40
2024-03-08T21:54:21.500Z,26.40
2024-03-08T21:56:55.837Z,25.20
2024-03-08T21:59:30.038Z,26.00
2024-03-08T22:02:05.101Z,23.70
2024-03-08T22:04:39.761Z,24.30
2024-03-08T22:07:14.890Z,22.50
2024-03-08T22:09:48.133Z,22.70
2024-03-08T22:12:21.575Z,24.00
2024-03-08T22:14:54.883Z,23.70
2024-03-08T22:17:27.940Z,32.00
2024-03-08T22:20:05.669Z,24.60
2024-03-08T22:22:39.081Z,22.40
2024-03-08T22:25:13.020Z,19.50
2024-03-08T22:27:49.778Z,22.00
2024-03-08T22:30:25.568Z,19.70
2024-03-08T22:32:58.848Z,22.60
2024-03-08T22:35:34.935Z,23.40
2024-03-08T22:38:10.720Z,21.40
2024-03-08T22:40:44.069Z,22.50
2024-03-08T22:43:18.600Z,21.70
2024-03-08T22:45:53.387Z,22.50
2024-03-08T22:48:26.660Z,19.00
2024-03-08T22:51:00.175Z,21.80
2024-03-08T22:53:33.372Z,21.90
2024-03-08T22:56:07.298Z,22.50
2024-03-08T22:58:43.445Z,23.10
2024-03-08T23:01:18.744Z,24.70
2024-03-08T23:03:53.900Z,23.20
2024-03-08T23:06:27.948Z,22.50
2024-03-08T23:09:01.341Z,21.80
2024-03-08T23:11:35.326Z,23.40
2024-03-08T23:14:08.422Z,22.30
2024-03-08T23:16:48.321Z,22.10
2024-03-08T23:19:22.065Z,19.70
2024-03-08T23:21:55.269Z,19.80
2024-03-08T23:24:28.861Z,22.20
2024-03-08T23:27:02.337Z,20.90
2024-03-08T23:29:35.316Z,23.60
2024-03-08T23:32:09.402Z,22.50
2024-03-08T23:34:42.297Z,22.00
2024-03-08T23:37:15.355Z,21.30
2024-03-08T23:39:48.443Z,22.10
2024-03-08T23:42:22.688Z,21.60
2024-03-08T23:44:55.584Z,26.30
2024-03-08T23:47:28.682Z,26.00
2024-03-08T23:50:02.392Z,23.40
2024-03-08T23:52:36.682Z,23.50
2024-03-08T23:55:11.379Z,26.40
2024-03-08T23:57:51.712Z,26.50
